sensor_id;sensor_type;location;lat;lon;timestamp;P1;durP1;ratioP1;P2;durP2;ratioP2
11211;SDS011;5663;50.864;12.096;2023-09-07T00:02:31;6.07;;;5.10;;
11211;SDS011;5663;50.864;12.096;2023-09-07T00:05:18;6.00;;;5.17;;
11211;SDS011;5663;50.864;12.096;2023-09-07T00:07:46;8.13;;;5.80;;
11211;SDS011;5663;50.864;12.096;2023-09-07T00:10:16;6.90;;;4.63;;
11211;SDS011;5663;50.864;12.096;2023-09-07T00:12:58;7.70;;;5.33;;
11211;SDS011;5663;50.864;12.096;2023-09-07T00:15:36;8.27;;;5.50;;
11211;SDS011;5663;50.864;12.096;2023-09-07T00:18:28;5.97;;;5.03;;
11211;SDS011;5663;50.864;12.096;2023-09-07T00:21:17;5.60;;;5.10;;
11211;SDS011;5663;50.864;12.096;2023-09-07T00:24:02;8.27;;;5.37;;
11211;SDS011;5663;50.864;12.096;2023-09-07T00:26:51;6.87;;;5.23;;
11211;SDS011;5663;50.864;12.096;2023-09-07T00:29:43;8.00;;;5.87;;
11211;SDS011;5663;50.864;12.096;2023-09-07T00:32:30;7.37;;;5.27;;
11211;SDS011;5663;50.864;12.096;2023-09-07T00:35:16;6.50;;;5.00;;
11211;SDS011;5663;50.864;12.096;2023-09-07T00:37:45;7.23;;;5.90;;
11211;SDS011;5663;50.864;12.096;2023-09-07T00:40:34;9.60;;;5.30;;
11211;SDS011;5663;50.864;12.096;2023-09-07T00:43:22;8.30;;;5.50;;
11211;SDS011;5663;50.864;12.096;2023-09-07T00:45:58;6.70;;;5.73;;
11211;SDS011;5663;50.864;12.096;2023-09-07T00:48:26;5.63;;;4.93;;
11211;SDS011;5663;50.864;12.096;2023-09-07T00:50:59;6.73;;;5.40;;
11211;SDS011;5663;50.864;12.096;2023-09-07T00:53:52;9.17;;;5.80;;
11211;SDS011;5663;50.864;12.096;2023-09-07T00:56:34;6.47;;;5.20;;
11211;SDS011;5663;50.864;12.096;2023-09-07T00:59:23;6.77;;;5.53;;
11211;SDS011;5663;50.864;12.096;2023-09-07T01:01:56;6.80;;;6.10;;
11211;SDS011;5663;50.864;12.096;2023-09-07T01:04:43;8.53;;;5.93;;
11211;SDS011;5663;50.864;12.096;2023-09-07T01:07:17;10.00;;;6.23;;
11211;SDS011;5663;50.864;12.096;2023-09-07T01:09:56;5.20;;;4.70;;
11211;SDS011;5663;50.864;12.096;2023-09-07T01:12:31;6.37;;;4.50;;
11211;SDS011;5663;50.864;12.096;2023-09-07T01:15:02;8.70;;;5.60;;
11211;SDS011;5663;50.864;12.096;2023-09-07T01:17:38;6.37;;;5.43;;
11211;SDS011;5663;50.864;12.096;2023-09-07T01:20:10;7.83;;;5.30;;
11211;SDS011;5663;50.864;12.096;2023-09-07T01:22:45;8.73;;;5.47;;
11211;SDS011;5663;50.864;12.096;2023-09-07T01:25:35;6.90;;;5.50;;
11211;SDS011;5663;50.864;12.096;2023-09-07T01:28:15;6.83;;;6.10;;
11211;SDS011;5663;50.864;12.096;2023-09-07T01:31:02;5.90;;;5.30;;
11211;SDS011;5663;50.864;12.096;2023-09-07T01:33:31;7.20;;;5.43;;
11211;SDS011;5663;50.864;12.096;2023-09-07T01:36:18;5.87;;;5.13;;
11211;SDS011;5663;50.864;12.096;2023-09-07T01:38:51;6.50;;;5.43;;
11211;SDS011;5663;50.864;12.096;2023-09-07T01:41:24;7.63;;;6.27;;
11211;SDS011;5663;50.864;12.096;2023-09-07T01:44:10;6.73;;;5.53;;
11211;SDS011;5663;50.864;12.096;2023-09-07T01:46:58;7.77;;;5.97;;
11211;SDS011;5663;50.864;12.096;2023-09-07T01:49:27;8.03;;;6.20;;
11211;SDS011;5663;50.864;12.096;2023-09-07T01:52:14;7.37;;;6.13;;
11211;SDS011;5663;50.864;12.096;2023-09-07T01:55:01;6.90;;;5.37;;
11211;SDS011;5663;50.864;12.096;2023-09-07T01:57:43;10.60;;;5.93;;
11211;SDS011;5663;50.864;12.096;2023-09-07T02:00:17;7.67;;;5.60;;
11211;SDS011;5663;50.864;12.096;2023-09-07T02:02:45;7.53;;;5.67;;
11211;SDS011;5663;50.864;12.096;2023-09-07T02:05:13;9.13;;;6.50;;
11211;SDS011;5663;50.864;12.096;2023-09-07T02:08:05;7.70;;;5.87;;
11211;SDS011;5663;50.864;12.096;2023-09-07T02:10:52;8.30;;;6.03;;
11211;SDS011;5663;50.864;12.096;2023-09-07T02:13:24;8.03;;;6.20;;
11211;SDS011;5663;50.864;12.096;2023-09-07T02:16:03;7.27;;;6.40;;
11211;SDS011;5663;50.864;12.096;2023-09-07T02:18:36;8.27;;;6.43;;
11211;SDS011;5663;50.864;12.096;2023-09-07T02:21:26;6.83;;;5.70;;
11211;SDS011;5663;50.864;12.096;2023-09-07T02:23:57;8.83;;;7.07;;
11211;SDS011;5663;50.864;12.096;2023-09-07T02:26:32;7.80;;;6.27;;
11211;SDS011;5663;50.864;12.096;2023-09-07T02:29:18;8.43;;;6.00;;
11211;SDS011;5663;50.864;12.096;2023-09-07T02:31:52;7.33;;;6.50;;
11211;SDS011;5663;50.864;12.096;2023-09-07T02:34:44;7.03;;;5.67;;
11211;SDS011;5663;50.864;12.096;2023-09-07T02:37:35;11.07;;;7.20;;
11211;SDS011;5663;50.864;12.096;2023-09-07T02:40:16;7.27;;;6.10;;
11211;SDS011;5663;50.864;12.096;2023-09-07T02:43:08;8.40;;;6.30;;
11211;SDS011;5663;50.864;12.096;2023-09-07T02:45:37;8.30;;;7.13;;
11211;SDS011;5663;50.864;12.096;2023-09-07T02:48:22;6.60;;;5.47;;
11211;SDS011;5663;50.864;12.096;2023-09-07T02:51:03;6.20;;;5.60;;
11211;SDS011;5663;50.864;12.096;2023-09-07T02:53:31;9.67;;;6.17;;
11211;SDS011;5663;50.864;12.096;2023-09-07T02:56:05;8.30;;;5.57;;
11211;SDS011;5663;50.864;12.096;2023-09-07T02:58:54;8.23;;;6.60;;
11211;SDS011;5663;50.864;12.096;2023-09-07T03:05:09;11.60;;;7.00;;
11211;SDS011;5663;50.864;12.096;2023-09-07T03:07:49;11.17;;;6.47;;
11211;SDS011;5663;50.864;12.096;2023-09-07T03:10:29;7.10;;;6.03;;
11211;SDS011;5663;50.864;12.096;2023-09-07T03:12:58;8.57;;;6.67;;
11211;SDS011;5663;50.864;12.096;2023-09-07T03:15:38;10.17;;;7.07;;
11211;SDS011;5663;50.864;12.096;2023-09-07T03:18:13;9.47;;;6.80;;
11211;SDS011;5663;50.864;12.096;2023-09-07T03:20:41;8.37;;;6.73;;
11211;SDS011;5663;50.864;12.096;2023-09-07T03:23:15;7.87;;;6.23;;
11211;SDS011;5663;50.864;12.096;2023-09-07T03:26:03;9.77;;;7.33;;
11211;SDS011;5663;50.864;12.096;2023-09-07T03:28:34;6.63;;;5.83;;
11211;SDS011;5663;50.864;12.096;2023-09-07T03:31:16;8.20;;;6.47;;
11211;SDS011;5663;50.864;12.096;2023-09-07T03:37:22;8.30;;;6.30;;
11211;SDS011;5663;50.864;12.096;2023-09-07T03:40:08;8.00;;;6.43;;
11211;SDS011;5663;50.864;12.096;2023-09-07T03:48:38;11.77;;;7.50;;
11211;SDS011;5663;50.864;12.096;2023-09-07T03:51:12;8.60;;;6.70;;
11211;SDS011;5663;50.864;12.096;2023-09-07T03:53:43;8.20;;;6.83;;
11211;SDS011;5663;50.864;12.096;2023-09-07T03:56:13;10.03;;;6.73;;
11211;SDS011;5663;50.864;12.096;2023-09-07T03:58:57;9.43;;;7.40;;
11211;SDS011;5663;50.864;12.096;2023-09-07T04:01:36;8.20;;;6.50;;
11211;SDS011;5663;50.864;12.096;2023-09-07T04:04:11;7.97;;;6.73;;
11211;SDS011;5663;50.864;12.096;2023-09-07T04:06:46;8.70;;;6.47;;
11211;SDS011;5663;50.864;12.096;2023-09-07T04:09:30;7.60;;;6.47;;
11211;SDS011;5663;50.864;12.096;2023-09-07T04:12:01;8.57;;;6.63;;
11211;SDS011;5663;50.864;12.096;2023-09-07T04:14:49;8.80;;;6.87;;
11211;SDS011;5663;50.864;12.096;2023-09-07T04:17:20;9.33;;;6.47;;
11211;SDS011;5663;50.864;12.096;2023-09-07T04:19:56;9.30;;;7.17;;
11211;SDS011;5663;50.864;12.096;2023-09-07T04:23:08;12.57;;;6.80;;
11211;SDS011;5663;50.864;12.096;2023-09-07T04:25:47;9.30;;;6.47;;
11211;SDS011;5663;50.864;12.096;2023-09-07T04:28:17;7.73;;;6.47;;
11211;SDS011;5663;50.864;12.096;2023-09-07T04:30:47;7.80;;;6.03;;
11211;SDS011;5663;50.864;12.096;2023-09-07T04:33:42;10.03;;;6.07;;
11211;SDS011;5663;50.864;12.096;2023-09-07T04:36:17;7.40;;;6.43;;
11211;SDS011;5663;50.864;12.096;2023-09-07T04:38:48;9.63;;;5.50;;
11211;SDS011;5663;50.864;12.096;2023-09-07T04:41:44;8.77;;;6.47;;
11211;SDS011;5663;50.864;12.096;2023-09-07T04:44:16;8.30;;;6.43;;
11211;SDS011;5663;50.864;12.096;2023-09-07T04:46:46;6.57;;;5.50;;
11211;SDS011;5663;50.864;12.096;2023-09-07T04:49:21;6.87;;;6.17;;
11211;SDS011;5663;50.864;12.096;2023-09-07T04:51:53;7.60;;;6.57;;
11211;SDS011;5663;50.864;12.096;2023-09-07T04:54:40;7.50;;;6.13;;
11211;SDS011;5663;50.864;12.096;2023-09-07T04:57:21;7.07;;;5.60;;
11211;SDS011;5663;50.864;12.096;2023-09-07T04:59:58;6.93;;;5.67;;
11211;SDS011;5663;50.864;12.096;2023-09-07T05:02:41;7.83;;;6.10;;
11211;SDS011;5663;50.864;12.096;2023-09-07T05:05:18;9.17;;;6.30;;
11211;SDS011;5663;50.864;12.096;2023-09-07T05:07:56;9.63;;;7.17;;
11211;SDS011;5663;50.864;12.096;2023-09-07T05:10:54;7.00;;;6.00;;
11211;SDS011;5663;50.864;12.096;2023-09-07T05:13:29;7.70;;;6.43;;
11211;SDS011;5663;50.864;12.096;2023-09-07T05:15:59;8.60;;;7.00;;
11211;SDS011;5663;50.864;12.096;2023-09-07T05:18:37;9.23;;;6.83;;
11211;SDS011;5663;50.864;12.096;2023-09-07T05:21:15;7.67;;;6.67;;
11211;SDS011;5663;50.864;12.096;2023-09-07T05:23:47;8.90;;;7.90;;
11211;SDS011;5663;50.864;12.096;2023-09-07T05:26:21;7.10;;;6.13;;
11211;SDS011;5663;50.864;12.096;2023-09-07T05:29:11;10.13;;;7.03;;
11211;SDS011;5663;50.864;12.096;2023-09-07T05:31:58;7.57;;;6.03;;
11211;SDS011;5663;50.864;12.096;2023-09-07T05:34:41;10.00;;;7.57;;
11211;SDS011;5663;50.864;12.096;2023-09-07T05:37:32;9.73;;;6.53;;
11211;SDS011;5663;50.864;12.096;2023-09-07T05:40:09;10.97;;;6.17;;
11211;SDS011;5663;50.864;12.096;2023-09-07T05:42:40;9.33;;;6.93;;
11211;SDS011;5663;50.864;12.096;2023-09-07T05:45:11;6.97;;;6.03;;
11211;SDS011;5663;50.864;12.096;2023-09-07T05:47:47;11.27;;;7.10;;
11211;SDS011;5663;50.864;12.096;2023-09-07T05:50:23;7.80;;;6.73;;
11211;SDS011;5663;50.864;12.096;2023-09-07T05:53:00;7.67;;;6.47;;
11211;SDS011;5663;50.864;12.096;2023-09-07T05:55:54;7.47;;;5.83;;
11211;SDS011;5663;50.864;12.096;2023-09-07T05:58:44;7.47;;;6.17;;
11211;SDS011;5663;50.864;12.096;2023-09-07T06:04:50;8.93;;;7.13;;
11211;SDS011;5663;50.864;12.096;2023-09-07T06:07:23;10.57;;;8.03;;
11211;SDS011;5663;50.864;12.096;2023-09-07T06:09:53;10.90;;;7.33;;
11211;SDS011;5663;50.864;12.096;2023-09-07T06:15:25;10.43;;;7.00;;
11211;SDS011;5663;50.864;12.096;2023-09-07T06:18:01;13.57;;;8.73;;
11211;SDS011;5663;50.864;12.096;2023-09-07T06:23:39;7.93;;;7.13;;
11211;SDS011;5663;50.864;12.096;2023-09-07T06:26:12;9.13;;;7.53;;
11211;SDS011;5663;50.864;12.096;2023-09-07T06:28:50;13.27;;;9.53;;
11211;SDS011;5663;50.864;12.096;2023-09-07T06:40:06;12.07;;;8.03;;
11211;SDS011;5663;50.864;12.096;2023-09-07T06:42:45;10.30;;;8.03;;
11211;SDS011;5663;50.864;12.096;2023-09-07T06:45:19;11.30;;;9.10;;
11211;SDS011;5663;50.864;12.096;2023-09-07T06:48:00;9.17;;;8.17;;
11211;SDS011;5663;50.864;12.096;2023-09-07T06:51:05;12.07;;;8.97;;
11211;SDS011;5663;50.864;12.096;2023-09-07T06:53:46;17.60;;;10.47;;
11211;SDS011;5663;50.864;12.096;2023-09-07T06:56:19;10.00;;;8.73;;
11211;SDS011;5663;50.864;12.096;2023-09-07T06:58:55;11.37;;;8.83;;
11211;SDS011;5663;50.864;12.096;2023-09-07T07:01:29;14.10;;;9.87;;
11211;SDS011;5663;50.864;12.096;2023-09-07T07:04:42;11.53;;;9.90;;
11211;SDS011;5663;50.864;12.096;2023-09-07T07:13:23;13.20;;;10.03;;
11211;SDS011;5663;50.864;12.096;2023-09-07T07:15:54;10.83;;;8.37;;
11211;SDS011;5663;50.864;12.096;2023-09-07T07:18:23;12.33;;;9.63;;
11211;SDS011;5663;50.864;12.096;2023-09-07T07:21:10;11.90;;;10.13;;
11211;SDS011;5663;50.864;12.096;2023-09-07T07:23:40;13.17;;;10.00;;
11211;SDS011;5663;50.864;12.096;2023-09-07T07:26:10;11.73;;;9.00;;
11211;SDS011;5663;50.864;12.096;2023-09-07T07:29:19;12.63;;;10.60;;
11211;SDS011;5663;50.864;12.096;2023-09-07T07:31:55;11.03;;;9.90;;
11211;SDS011;5663;50.864;12.096;2023-09-07T07:34:29;11.43;;;9.57;;
11211;SDS011;5663;50.864;12.096;2023-09-07T07:37:05;11.93;;;8.80;;
11211;SDS011;5663;50.864;12.096;2023-09-07T07:39:35;13.60;;;9.10;;
11211;SDS011;5663;50.864;12.096;2023-09-07T07:42:24;10.37;;;8.97;;
11211;SDS011;5663;50.864;12.096;2023-09-07T08:43:21;8.77;;;7.87;;
11211;SDS011;5663;50.864;12.096;2023-09-07T08:52:14;13.70;;;8.13;;
11211;SDS011;5663;50.864;12.096;2023-09-07T08:54:49;10.60;;;7.27;;
11211;SDS011;5663;50.864;12.096;2023-09-07T09:01:31;7.67;;;6.87;;
11211;SDS011;5663;50.864;12.096;2023-09-07T09:46:34;7.00;;;5.22;;
11211;SDS011;5663;50.864;12.096;2023-09-07T09:49:17;6.63;;;4.70;;
11211;SDS011;5663;50.864;12.096;2023-09-07T09:52:06;6.60;;;4.60;;
11211;SDS011;5663;50.864;12.096;2023-09-07T09:54:44;7.40;;;5.13;;
11211;SDS011;5663;50.864;12.096;2023-09-07T09:57:13;6.05;;;5.03;;
11211;SDS011;5663;50.864;12.096;2023-09-07T10:04:59;4.63;;;4.20;;
11211;SDS011;5663;50.864;12.096;2023-09-07T10:43:33;4.38;;;3.53;;
11211;SDS011;5663;50.864;12.096;2023-09-07T10:50:14;4.68;;;4.10;;
11211;SDS011;5663;50.864;12.096;2023-09-07T10:56:19;15.45;;;4.90;;
11211;SDS011;5663;50.864;12.096;2023-09-07T11:02:09;3.83;;;3.53;;
11211;SDS011;5663;50.864;12.096;2023-09-07T11:04:47;3.63;;;3.33;;
11211;SDS011;5663;50.864;12.096;2023-09-07T11:07:36;5.20;;;3.78;;
11211;SDS011;5663;50.864;12.096;2023-09-07T11:11:37;4.38;;;3.97;;
11211;SDS011;5663;50.864;12.096;2023-09-07T11:13:25;5.43;;;3.97;;
11211;SDS011;5663;50.864;12.096;2023-09-07T11:22:26;5.68;;;3.88;;
11211;SDS011;5663;50.864;12.096;2023-09-07T11:29:13;7.43;;;4.10;;
11211;SDS011;5663;50.864;12.096;2023-09-07T11:41:24;5.25;;;4.45;;
11211;SDS011;5663;50.864;12.096;2023-09-07T11:43:52;4.78;;;4.30;;
11211;SDS011;5663;50.864;12.096;2023-09-07T11:51:13;5.43;;;4.13;;
11211;SDS011;5663;50.864;12.096;2023-09-07T11:56:42;5.82;;;3.90;;
11211;SDS011;5663;50.864;12.096;2023-09-07T11:59:24;5.72;;;4.00;;
11211;SDS011;5663;50.864;12.096;2023-09-07T12:05:31;4.18;;;3.63;;
11211;SDS011;5663;50.864;12.096;2023-09-07T12:10:43;4.07;;;3.67;;
11211;SDS011;5663;50.864;12.096;2023-09-07T12:29:23;3.22;;;2.90;;
11211;SDS011;5663;50.864;12.096;2023-09-07T12:32:14;3.58;;;3.28;;
11211;SDS011;5663;50.864;12.096;2023-09-07T12:43:17;3.67;;;3.25;;
11211;SDS011;5663;50.864;12.096;2023-09-07T12:50:10;5.72;;;3.10;;
11211;SDS011;5663;50.864;12.096;2023-09-07T12:59:35;6.20;;;3.33;;
11211;SDS011;5663;50.864;12.096;2023-09-07T13:08:39;3.47;;;3.17;;
11211;SDS011;5663;50.864;12.096;2023-09-07T13:18:45;4.47;;;3.63;;
11211;SDS011;5663;50.864;12.096;2023-09-07T13:21:33;6.82;;;3.53;;
11211;SDS011;5663;50.864;12.096;2023-09-07T13:24:12;4.50;;;3.15;;
11211;SDS011;5663;50.864;12.096;2023-09-07T13:26:46;5.00;;;3.25;;
11211;SDS011;5663;50.864;12.096;2023-09-07T13:29:42;3.72;;;3.42;;
11211;SDS011;5663;50.864;12.096;2023-09-07T13:32:25;3.40;;;2.90;;
11211;SDS011;5663;50.864;12.096;2023-09-07T13:37:57;5.68;;;3.33;;
11211;SDS011;5663;50.864;12.096;2023-09-07T13:40:40;3.47;;;3.17;;
11211;SDS011;5663;50.864;12.096;2023-09-07T13:52:22;4.85;;;2.97;;
11211;SDS011;5663;50.864;12.096;2023-09-07T13:54:57;4.20;;;3.10;;
11211;SDS011;5663;50.864;12.096;2023-09-07T14:13:58;5.05;;;3.17;;
11211;SDS011;5663;50.864;12.096;2023-09-07T14:19:32;5.55;;;2.80;;
11211;SDS011;5663;50.864;12.096;2023-09-07T14:22:08;3.60;;;2.90;;
11211;SDS011;5663;50.864;12.096;2023-09-07T14:34:33;6.55;;;3.15;;
11211;SDS011;5663;50.864;12.096;2023-09-07T14:37:04;5.07;;;3.50;;
11211;SDS011;5663;50.864;12.096;2023-09-07T14:40:23;3.38;;;3.08;;
11211;SDS011;5663;50.864;12.096;2023-09-07T15:13:53;3.20;;;2.90;;
11211;SDS011;5663;50.864;12.096;2023-09-07T15:26:13;8.25;;;3.83;;
11211;SDS011;5663;50.864;12.096;2023-09-07T15:33:06;4.18;;;3.10;;
11211;SDS011;5663;50.864;12.096;2023-09-07T15:43:57;3.10;;;2.80;;
11211;SDS011;5663;50.864;12.096;2023-09-07T15:52:06;4.55;;;3.35;;
11211;SDS011;5663;50.864;12.096;2023-09-07T16:00:25;3.95;;;3.42;;
11211;SDS011;5663;50.864;12.096;2023-09-07T16:03:47;3.80;;;3.30;;
11211;SDS011;5663;50.864;12.096;2023-09-07T16:40:35;3.58;;;3.22;;
11211;SDS011;5663;50.864;12.096;2023-09-07T16:52:40;8.10;;;3.17;;
11211;SDS011;5663;50.864;12.096;2023-09-07T16:56:12;5.25;;;3.50;;
11211;SDS011;5663;50.864;12.096;2023-09-07T18:08:57;7.95;;;4.32;;
11211;SDS011;5663;50.864;12.096;2023-09-07T18:11:55;7.13;;;4.13;;
11211;SDS011;5663;50.864;12.096;2023-09-07T18:14:29;4.45;;;3.83;;
11211;SDS011;5663;50.864;12.096;2023-09-07T18:17:14;5.97;;;4.03;;
11211;SDS011;5663;50.864;12.096;2023-09-07T18:20:25;6.70;;;4.25;;
11211;SDS011;5663;50.864;12.096;2023-09-07T18:23:13;7.28;;;4.13;;
11211;SDS011;5663;50.864;12.096;2023-09-07T18:26:13;10.07;;;4.25;;
11211;SDS011;5663;50.864;12.096;2023-09-07T18:36:11;4.85;;;3.95;;
11211;SDS011;5663;50.864;12.096;2023-09-07T19:02:46;6.55;;;4.85;;
11211;SDS011;5663;50.864;12.096;2023-09-07T19:05:34;4.55;;;4.10;;
11211;SDS011;5663;50.864;12.096;2023-09-07T19:21:10;6.03;;;5.15;;
11211;SDS011;5663;50.864;12.096;2023-09-07T19:29:39;6.13;;;4.85;;
11211;SDS011;5663;50.864;12.096;2023-09-07T19:32:43;7.00;;;4.35;;
11211;SDS011;5663;50.864;12.096;2023-09-07T19:36:17;7.88;;;4.45;;
11211;SDS011;5663;50.864;12.096;2023-09-07T20:11:21;7.47;;;5.57;;
11211;SDS011;5663;50.864;12.096;2023-09-07T20:14:27;6.13;;;4.53;;
11211;SDS011;5663;50.864;12.096;2023-09-07T20:17:30;9.67;;;4.97;;
11211;SDS011;5663;50.864;12.096;2023-09-07T20:29:00;9.67;;;6.00;;
11211;SDS011;5663;50.864;12.096;2023-09-07T20:31:41;6.00;;;4.77;;
11211;SDS011;5663;50.864;12.096;2023-09-07T20:34:52;6.37;;;5.00;;
11211;SDS011;5663;50.864;12.096;2023-09-07T20:38:13;6.73;;;5.50;;
11211;SDS011;5663;50.864;12.096;2023-09-07T20:40:53;8.03;;;6.00;;
11211;SDS011;5663;50.864;12.096;2023-09-07T20:43:50;6.37;;;5.20;;
11211;SDS011;5663;50.864;12.096;2023-09-07T20:46:49;10.43;;;5.80;;
11211;SDS011;5663;50.864;12.096;2023-09-07T20:49:51;6.33;;;5.40;;
11211;SDS011;5663;50.864;12.096;2023-09-07T20:52:43;5.97;;;5.37;;
11211;SDS011;5663;50.864;12.096;2023-09-07T20:55:35;8.83;;;5.13;;
11211;SDS011;5663;50.864;12.096;2023-09-07T20:58:15;10.47;;;4.60;;
11211;SDS011;5663;50.864;12.096;2023-09-07T21:00:46;8.17;;;4.90;;
11211;SDS011;5663;50.864;12.096;2023-09-07T21:03:46;5.10;;;4.60;;
11211;SDS011;5663;50.864;12.096;2023-09-07T21:06:38;6.63;;;4.67;;
11211;SDS011;5663;50.864;12.096;2023-09-07T21:09:20;6.97;;;5.47;;
11211;SDS011;5663;50.864;12.096;2023-09-07T21:12:02;6.63;;;5.07;;
11211;SDS011;5663;50.864;12.096;2023-09-07T21:14:33;10.60;;;5.53;;
11211;SDS011;5663;50.864;12.096;2023-09-07T21:17:27;6.93;;;6.03;;
11211;SDS011;5663;50.864;12.096;2023-09-07T21:20:28;6.10;;;5.50;;
11211;SDS011;5663;50.864;12.096;2023-09-07T21:22:59;10.53;;;5.47;;
11211;SDS011;5663;50.864;12.096;2023-09-07T21:29:06;8.40;;;6.00;;
11211;SDS011;5663;50.864;12.096;2023-09-07T21:31:59;5.70;;;4.87;;
11211;SDS011;5663;50.864;12.096;2023-09-07T21:34:46;6.40;;;5.20;;
11211;SDS011;5663;50.864;12.096;2023-09-07T21:37:30;8.73;;;4.93;;
11211;SDS011;5663;50.864;12.096;2023-09-07T21:40:33;6.50;;;5.37;;
11211;SDS011;5663;50.864;12.096;2023-09-07T21:43:21;7.33;;;5.43;;
11211;SDS011;5663;50.864;12.096;2023-09-07T21:46:14;6.73;;;5.40;;
11211;SDS011;5663;50.864;12.096;2023-09-07T21:48:50;6.83;;;5.57;;
11211;SDS011;5663;50.864;12.096;2023-09-07T21:51:27;5.30;;;4.70;;
11211;SDS011;5663;50.864;12.096;2023-09-07T21:54:10;5.80;;;4.80;;
11211;SDS011;5663;50.864;12.096;2023-09-07T21:56:41;6.17;;;5.40;;
11211;SDS011;5663;50.864;12.096;2023-09-07T21:59:18;5.70;;;5.10;;
11211;SDS011;5663;50.864;12.096;2023-09-07T22:02:00;5.63;;;4.73;;
11211;SDS011;5663;50.864;12.096;2023-09-07T22:04:50;6.17;;;5.07;;
11211;SDS011;5663;50.864;12.096;2023-09-07T22:07:24;8.60;;;5.60;;
11211;SDS011;5663;50.864;12.096;2023-09-07T22:09:59;6.50;;;4.97;;
11211;SDS011;5663;50.864;12.096;2023-09-07T22:12:40;6.63;;;5.50;;
11211;SDS011;5663;50.864;12.096;2023-09-07T22:15:17;9.83;;;5.77;;
11211;SDS011;5663;50.864;12.096;2023-09-07T22:17:50;8.17;;;5.93;;
11211;SDS011;5663;50.864;12.096;2023-09-07T22:20:35;5.67;;;5.10;;
11211;SDS011;5663;50.864;12.096;2023-09-07T22:23:13;7.07;;;6.10;;
11211;SDS011;5663;50.864;12.096;2023-09-07T22:26:29;7.07;;;5.70;;
11211;SDS011;5663;50.864;12.096;2023-09-07T22:29:18;8.30;;;5.97;;
11211;SDS011;5663;50.864;12.096;2023-09-07T22:32:08;7.57;;;5.97;;
11211;SDS011;5663;50.864;12.096;2023-09-07T22:34:40;6.97;;;5.33;;
11211;SDS011;5663;50.864;12.096;2023-09-07T22:37:11;6.33;;;5.07;;
11211;SDS011;5663;50.864;12.096;2023-09-07T22:39:56;6.53;;;5.80;;
11211;SDS011;5663;50.864;12.096;2023-09-07T22:42:50;7.40;;;6.07;;
11211;SDS011;5663;50.864;12.096;2023-09-07T22:45:35;7.00;;;4.97;;
11211;SDS011;5663;50.864;12.096;2023-09-07T22:48:28;4.53;;;4.13;;
11211;SDS011;5663;50.864;12.096;2023-09-07T22:51:11;6.77;;;5.40;;
11211;SDS011;5663;50.864;12.096;2023-09-07T22:54:12;9.10;;;6.40;;
11211;SDS011;5663;50.864;12.096;2023-09-07T22:57:10;7.60;;;6.23;;
11211;SDS011;5663;50.864;12.096;2023-09-07T22:59:55;7.87;;;6.00;;
11211;SDS011;5663;50.864;12.096;2023-09-07T23:02:51;8.93;;;6.27;;
11211;SDS011;5663;50.864;12.096;2023-09-07T23:05:48;9.70;;;6.33;;
11211;SDS011;5663;50.864;12.096;2023-09-07T23:09:00;8.43;;;6.40;;
11211;SDS011;5663;50.864;12.096;2023-09-07T23:11:51;7.10;;;6.40;;
11211;SDS011;5663;50.864;12.096;2023-09-07T23:14:41;7.90;;;6.80;;
11211;SDS011;5663;50.864;12.096;2023-09-07T23:17:33;7.93;;;6.00;;
11211;SDS011;5663;50.864;12.096;2023-09-07T23:20:10;8.83;;;6.60;;
11211;SDS011;5663;50.864;12.096;2023-09-07T23:22:45;9.30;;;6.23;;
11211;SDS011;5663;50.864;12.096;2023-09-07T23:25:33;9.77;;;7.00;;
11211;SDS011;5663;50.864;12.096;2023-09-07T23:28:27;8.30;;;5.40;;
11211;SDS011;5663;50.864;12.096;2023-09-07T23:31:06;5.53;;;4.93;;
11211;SDS011;5663;50.864;12.096;2023-09-07T23:34:04;11.53;;;5.83;;
11211;SDS011;5663;50.864;12.096;2023-09-07T23:36:44;7.30;;;6.00;;
11211;SDS011;5663;50.864;12.096;2023-09-07T23:39:38;7.63;;;5.93;;
11211;SDS011;5663;50.864;12.096;2023-09-07T23:42:30;8.33;;;6.57;;
11211;SDS011;5663;50.864;12.096;2023-09-07T23:45:08;9.10;;;6.50;;
11211;SDS011;5663;50.864;12.096;2023-09-07T23:47:40;12.27;;;6.47;;
11211;SDS011;5663;50.864;12.096;2023-09-07T23:50:12;7.77;;;6.03;;
11211;SDS011;5663;50.864;12.096;2023-09-07T23:56:09;7.33;;;5.63;;
11211;SDS011;5663;50.864;12.096;2023-09-07T23:58:59;6.87;;;6.17;;
